Stations météo

réclame
Mon MeteoGroup
Boertnan, Suède (2319): Température de l'air & dewpoint: 13.01.2018 18:00:00 - 19.01.2018 18:00:00 (CET)Boertnan, Suède (2319): Vitesse du vent & gusts: 13.01.2018 18:00:00 - 19.01.2018 18:00:00 (CET)Boertnan, Suède (2319): Direction du vent: 13.01.2018 18:00:00 - 19.01.2018 18:00:00 (CET)Boertnan, Suède (2319): visibility: 13.01.2018 18:00:00 - 19.01.2018 18:00:00 (CET)Boertnan, Suède (2319): Quantités de précipitations: 13.01.2018 18:00:00 - 19.01.2018 18:00:00 (CET)
Date & Time tt [°C] td [°C] ff [km/h] ff [knt] fx [km/h] fx [knt] dd vv [km] rr [mm]
19.01.2018 18:00:00 -8,7 -9,9 0 0 3 2 N 6 0,0
19.01.2018 17:00:00 -8,7 -9,9 0 0 5 3 N 4,1 0,0
19.01.2018 16:00:00 -8,3 -9,5 3 2 7 4 E 5 0,0
19.01.2018 15:00:00 -8,8 -10,3 0 0 3 2 N 2,2 0,0
19.01.2018 14:00:00 -8,7 -10,3 0 0 3 2 N 6 0,0
19.01.2018 13:00:00 -9,4 -10,9 3 1 5 3 SE 16 0,0
19.01.2018 12:00:00 -9,7 -11,3 0 0 3 2 N 5 0,0
19.01.2018 11:00:00 -9,8 -11,3 0 0 3 1 N 17 0,0
19.01.2018 10:00:00 -10,2 -11,7 0 0 4 2 N 17 0,0
19.01.2018 09:00:00 -10,2 -11,7 0 0 3 2 N 27 0,0
19.01.2018 08:00:00 -10,1 -11,6 0 0 3 2 N 26 -
19.01.2018 07:00:00 -10,6 -11,9 0 0 2 1 N 27 0,0
19.01.2018 06:00:00 -10,5 -12,0 0 0 5 3 N 27 -
19.01.2018 05:00:00 -10,4 -11,9 3 1 4 2 SE 22 0,0
19.01.2018 04:00:00 -10,7 -12,0 0 0 2 1 N 3,9 0,0
19.01.2018 03:00:00 -10,5 -12,0 0 0 2 1 N 4,2 0,0
19.01.2018 02:00:00 -10,6 -12,1 0 0 4 2 N 8 0,0
19.01.2018 01:00:00 -10,6 -12,1 0 0 5 3 N 4,9 0,0
19.01.2018 00:00:00 -10,9 -12,2 2 1 6 3 E 18 0,0
18.01.2018 23:00:00 -11,4 -12,8 0 0 3 2 N 13 0,0
18.01.2018 22:00:00 -11,5 -12,9 0 0 3 1 N 8 0,0
18.01.2018 21:00:00 -11,8 -13,2 0 0 3 1 N 4,5 0,0
18.01.2018 20:00:00 -11,5 -12,9 0 0 4 2 N 1,8 0,0
18.01.2018 19:00:00 -11,3 -12,6 2 1 4 2 SSE 2,3 0,0
18.01.2018 18:00:00 -11,5 -12,7 0 0 5 3 N 2,1 0,0
18.01.2018 17:00:00 -12,8 -14,4 0 0 5 3 N 12 0,0
18.01.2018 16:00:00 -10,8 -12,3 2 1 10 5 SE 2,0 0,0
18.01.2018 15:00:00 -10,0 -11,6 4 2 9 5 E 8 0,0
18.01.2018 14:00:00 -9,8 -11,6 6 3 10 6 E 7 0,0
18.01.2018 13:00:00 -9,6 -11,4 5 3 10 6 E 11 0,0
18.01.2018 12:00:00 -9,7 -11,2 5 3 12 6 E 7 0,0
18.01.2018 11:00:00 -9,8 -11,3 6 3 12 7 E 14 0,0
18.01.2018 10:00:00 -10,2 -11,5 4 2 7 4 E 7 0,0
18.01.2018 09:00:00 -10,7 -11,9 2 1 6 4 ESE 2,3 0,0
18.01.2018 08:00:00 -10,6 -11,8 4 2 10 5 ESE 3,1 0,0
18.01.2018 07:00:00 -10,0 -11,3 3 2 8 4 E 5 0,0
18.01.2018 06:00:00 -9,7 -11,0 4 2 10 5 E 2,1 0,0
18.01.2018 05:00:00 -9,2 -10,5 0 0 21 11 N 16 0,0
18.01.2018 04:00:00 -8,4 -9,6 9 5 21 11 E 12 0,0
18.01.2018 03:00:00 -8,3 -9,5 8 4 21 11 E 10 0,0
18.01.2018 02:00:00 -8,5 -9,7 8 5 17 9 E 5 0,0
18.01.2018 01:00:00 -8,1 -9,3 9 5 18 10 E 3,7 0,0
18.01.2018 00:00:00 -7,6 -8,8 8 5 18 10 E 4,1 0,0
17.01.2018 23:00:00 -7,3 -8,4 10 5 18 10 E 2,5 0,0
17.01.2018 22:00:00 -7,0 -8,1 9 5 17 9 E 3,2 0,0
17.01.2018 21:00:00 -7,0 -8,2 8 4 17 9 E 6 0,0
17.01.2018 20:00:00 -6,9 -8,0 8 5 21 11 E 9 0,0
17.01.2018 19:00:00 -6,8 -7,9 9 5 19 10 E 6 0,0
17.01.2018 18:00:00 -6,6 -7,5 7 4 18 10 ESE 1,4 0,0
17.01.2018 17:00:00 -6,3 -7,5 11 6 23 12 ESE 1,8 0,0
17.01.2018 16:00:00 -5,9 -7,1 10 6 24 13 E 1,5 0,0
17.01.2018 15:00:00 -5,6 -6,8 10 5 32 17 E 1,2 0,0
17.01.2018 14:00:00 -5,1 -6,9 16 8 34 18 E 4,7 0,0
17.01.2018 13:00:00 -4,8 -6,5 14 8 - - E 4,2 0,0
17.01.2018 12:00:00 -4,7 -6,2 13 7 27 15 E 2,1 0,0
17.01.2018 11:00:00 -4,6 -5,8 15 8 30 16 E 2,0 0,0
17.01.2018 10:00:00 -4,4 -5,2 6 4 22 12 E 1,2 0,0
17.01.2018 09:00:00 -4,3 -5,7 15 8 37 20 ESE 2,9 0,0
17.01.2018 08:00:00 - - - - - - - - -
17.01.2018 07:00:00 -3,7 -4,7 13 7 25 14 E 1,9 0,0
17.01.2018 06:00:00 -3,4 -4,7 14 8 27 15 E 3,1 0,0
17.01.2018 05:00:00 -3,0 -4,3 13 7 26 14 E 9 0,0
17.01.2018 04:00:00 -2,8 -3,6 12 6 27 15 ESE 4,3 0,0
17.01.2018 03:00:00 -2,9 -3,9 9 5 20 11 ESE 6 0,0
17.01.2018 02:00:00 -2,7 -4,0 10 6 27 15 ESE 18 0,0
17.01.2018 01:00:00 -2,8 -4,1 15 8 27 15 SE 13 0,0
17.01.2018 00:00:00 -3,0 -4,3 13 7 28 15 ESE 19 0,0
16.01.2018 23:00:00 -3,1 -3,9 14 8 27 15 ESE 3,7 0,0
16.01.2018 22:00:00 -3,1 -4,2 13 7 33 18 ESE 10 0,0
16.01.2018 21:00:00 -3,0 -4,1 14 8 32 18 ESE 5 0,0
16.01.2018 20:00:00 -3,0 -4,4 16 9 34 18 ESE 4,5 0,0
16.01.2018 19:00:00 -2,9 -4,3 19 10 34 18 ESE 8 0,0
16.01.2018 18:00:00 -2,9 -4,2 16 9 34 18 ESE 5 0,0
16.01.2018 17:00:00 -3,1 -3,8 16 8 30 16 ESE 1,1 0,0
16.01.2018 16:00:00 -3,1 -3,8 16 8 32 17 ESE 0,6 0,0
16.01.2018 15:00:00 -3,0 -3,7 14 7 37 20 E 0,9 0,0
16.01.2018 14:00:00 -2,9 -3,7 17 9 36 20 ESE 1,0 0,0
16.01.2018 13:00:00 -2,9 -3,9 18 10 34 18 ESE 1,2 0,0
16.01.2018 12:00:00 -3,2 -4,2 16 8 32 17 ESE 1,4 0,0
16.01.2018 11:00:00 -3,4 -4,8 18 10 37 20 SE 2,8 0,0
16.01.2018 10:00:00 -3,7 -4,8 19 10 36 19 ESE 2,4 0,0
16.01.2018 09:00:00 -3,7 -4,8 15 8 28 15 ESE 2,8 0,0
16.01.2018 08:00:00 -3,9 -4,9 8 5 24 13 ESE 2,2 0,0
16.01.2018 07:00:00 -3,8 -4,8 14 8 29 16 ESE 1,7 0,0
16.01.2018 06:00:00 -4,1 -4,8 13 7 24 13 ESE 1,2 0,0
16.01.2018 05:00:00 -4,4 -5,5 12 7 29 16 ESE 2,8 0,0
16.01.2018 04:00:00 -4,7 -5,8 13 7 29 16 ESE 2,3 0,0
16.01.2018 03:00:00 -4,9 -6,4 16 9 34 19 SE 3,4 0,0
16.01.2018 02:00:00 -5,2 -6,7 20 11 35 19 SE 2,7 0,0
16.01.2018 01:00:00 -5,8 -7,0 20 11 39 21 SE 3,2 0,0
16.01.2018 00:00:00 -6,2 -7,3 14 8 31 17 SE 4,8 0,0
15.01.2018 23:00:00 -6,6 -7,5 12 7 24 13 SE 4,1 0,0
15.01.2018 22:00:00 -6,9 -7,8 11 6 29 16 ESE 2,3 0,0
15.01.2018 21:00:00 -7,2 -8,1 13 7 26 14 ESE 1,0 0,0
15.01.2018 20:00:00 -7,3 -8,2 13 7 28 15 ESE 1,0 0,0
15.01.2018 19:00:00 -7,0 -8,1 18 10 33 18 SE 1,3 0,0
15.01.2018 18:00:00 -6,9 -8,1 19 10 35 19 SSE 1,4 0,0
15.01.2018 17:00:00 -6,6 -8,4 19 10 45 25 SSE 2,2 0,0
15.01.2018 16:00:00 -6,3 -8,9 24 13 50 27 SSE 2,9 0,0
15.01.2018 15:00:00 -6,4 -8,8 23 12 44 24 SSE 2,1 0,0
15.01.2018 14:00:00 -6,3 -8,9 18 10 43 23 SSE 5 0,0
15.01.2018 13:00:00 -6,4 -9,1 17 9 40 21 SE 7 0,0
15.01.2018 12:00:00 -6,2 -9,2 18 10 36 19 SSE 7 0,0
15.01.2018 11:00:00 -6,1 -8,8 16 9 29 16 SE 6 0,0
15.01.2018 10:00:00 -5,8 -8,7 16 9 37 20 ESE 9 0,0
15.01.2018 09:00:00 -5,6 -8,2 22 12 37 20 SSE 4,4 0,0
15.01.2018 08:00:00 -5,6 -8,2 19 11 38 21 SE 7 0,0
15.01.2018 07:00:00 -5,4 -8,0 18 10 40 22 SSE 9 0,0
15.01.2018 06:00:00 -5,4 -7,8 16 9 34 18 SE 8 0,0
15.01.2018 05:00:00 -5,5 -7,8 15 8 28 15 SSE 4,4 0,0
15.01.2018 04:00:00 -5,4 -8,0 13 7 31 17 SSE 7 0,0
15.01.2018 03:00:00 -5,2 -8,1 13 7 32 17 S 7 0,0
15.01.2018 02:00:00 -5,1 -8,5 14 7 29 15 S 9 0,0
15.01.2018 01:00:00 -6,1 -8,4 6 3 20 11 E 4,7 0,0
15.01.2018 00:00:00 -5,6 -8,8 8 4 26 14 SSE 16 0,0
14.01.2018 23:00:00 -6,0 -9,4 2 1 15 8 SSE 44 0,0
14.01.2018 22:00:00 -6,1 -9,8 10 5 22 12 SSW 36 0,0
14.01.2018 21:00:00 -6,6 -10,3 10 5 24 13 S 24 0,0
14.01.2018 20:00:00 -7,0 -10,8 7 4 27 14 ESE 34 0,0
14.01.2018 19:00:00 -6,7 -10,9 18 10 34 18 S 20 0,0
14.01.2018 18:00:00 -6,6 -10,1 16 8 34 18 S 28 0,0
14.01.2018 17:00:00 -6,7 -9,9 8 4 26 14 S 17 0,0
14.01.2018 16:00:00 -6,6 -9,8 13 7 26 14 SSW 36 0,0
14.01.2018 15:00:00 -6,7 -9,9 9 5 25 13 S 36 0,0
14.01.2018 14:00:00 -6,7 -9,6 10 5 24 13 SSW 21 0,0
14.01.2018 13:00:00 -6,8 -9,5 9 5 19 10 S 16 0,0
14.01.2018 12:00:00 -9,6 -10,9 3 2 10 6 S 33 0,0
14.01.2018 11:00:00 -14,1 -15,8 0 0 5 3 N 42 -
14.01.2018 10:00:00 -16,1 -17,9 0 0 4 2 N 34 -
14.01.2018 09:00:00 -17,1 -19,0 0 0 6 3 N 50 -
14.01.2018 08:00:00 -19,2 -21,2 0 0 6 3 N 50 0,0
14.01.2018 07:00:00 -21,2 -23,5 0 0 7 4 N 41 0,0
14.01.2018 06:00:00 -22,8 -25,2 3 1 7 4 WNW 2,9 0,0
14.01.2018 05:00:00 -22,1 -24,5 3 1 6 3 W 5 0,0
14.01.2018 04:00:00 -22,9 -25,4 2 1 6 3 W 9 0,0
14.01.2018 03:00:00 -23,4 -25,9 0 0 5 3 N 3,2 0,0
14.01.2018 02:00:00 -24,2 -26,8 0 0 5 3 N 2,1 0,0
14.01.2018 01:00:00 -25,7 -28,1 0 0 5 3 N 1,0 0,0
14.01.2018 00:00:00 -28,3 -31,2 2 1 6 4 WNW 50 -
13.01.2018 23:00:00 -27,3 -30,1 3 2 6 4 W 50 -
13.01.2018 22:00:00 -27,2 -30,0 0 0 4 2 N 50 -
13.01.2018 21:00:00 -26,7 -29,5 0 0 5 3 N 50 -
13.01.2018 20:00:00 -25,7 -28,4 3 1 5 3 WNW 50 -
13.01.2018 19:00:00 -24,8 -27,4 0 0 6 3 N 42 -
13.01.2018 18:00:00 -23,8 -26,4 2 1 6 4 WNW 50 -

tt = Température de l'air
td = dewpoint
ff = Vitesse du vent
fx = gusts
dd = Direction du vent
vv = visibility
rr = Quantités de précipitations

stations d'obs. à proximité